Time;durP1;ratioP1;P1;durP2;ratioP2;P2;SDS_P1;SDS_P2;PMS_P1;PMS_P2;Temp;Humidity;BMP_temperature;BMP_pressure;BME280_temperature;BME280_humidity;BME280_pressure;Samples;Min_cycle;Max_cycle;Signal;HPM_P1;HPM_P2
2021/06/02 00:03:54;;;;;;;5.60;2.58;;;13.90;92.70;;;;;;5074102;28;20027;-88
2021/06/02 00:06:24;;;;;;;8.52;2.72;;;13.80;93.10;;;;;;5073725;28;20099;-87
2021/06/02 00:08:54;;;;;;;7.30;2.70;;;13.80;93.00;;;;;;5072512;28;20017;-87
2021/06/02 00:11:20;;;;;;;4.35;2.50;;;13.80;92.90;;;;;;5072418;28;20539;-88
2021/06/02 00:13:46;;;;;;;3.85;2.40;;;13.60;93.50;;;;;;5073626;28;20020;-88
2021/06/02 00:16:12;;;;;;;7.70;2.65;;;13.80;93.30;;;;;;5072346;28;20031;-88
2021/06/02 00:18:38;;;;;;;4.95;2.67;;;13.70;93.20;;;;;;5073508;28;20062;-88
2021/06/02 00:21:06;;;;;;;8.10;2.70;;;13.50;93.70;;;;;;5072281;28;20421;-88
2021/06/02 00:23:32;;;;;;;4.70;2.80;;;13.40;93.80;;;;;;5072304;28;20051;-88
2021/06/02 00:25:59;;;;;;;6.40;2.80;;;;;;;;;;5072258;28;20021;-87
2021/06/02 00:28:25;;;;;;;5.03;2.80;;;;;;;;;;5072118;28;20052;-87
2021/06/02 00:30:51;;;;;;;5.22;2.65;;;;;;;;;;5073409;28;20479;-87
2021/06/02 00:33:18;;;;;;;2.80;2.33;;;;;;;;;;5073450;28;20052;-87
2021/06/02 00:35:44;;;;;;;3.50;2.55;;;;;;;;;;5072060;28;20055;-87
2021/06/02 00:38:11;;;;;;;4.78;2.63;;;;;;;;;;5072047;28;20472;-87
2021/06/02 00:40:50;;;;;;;6.18;2.40;;;;;;;;;;5071952;28;20400;-87
2021/06/02 00:43:19;;;;;;;3.13;2.40;;;;;;;;;;5071985;28;20028;-87
2021/06/02 00:45:45;;;;;;;4.72;2.40;;;;;;;;;;5071841;28;20365;-87
2021/06/02 00:48:18;;;;;;;3.75;2.40;;;;;;;;;;5071915;28;20314;-87
2021/06/02 00:50:48;;;;;;;4.32;2.22;;;;;;;;;;5073481;28;20020;-87
2021/06/02 00:53:15;;;;;;;4.57;2.35;;;;;;;;;;5071894;28;20025;-87
2021/06/02 00:55:41;;;;;;;5.32;2.65;;;;;;;;;;5073118;28;20028;-88
2021/06/02 00:58:09;;;;;;;5.38;2.70;;;;;;;;;;5073119;28;20020;-88
2021/06/02 01:00:35;;;;;;;4.32;2.67;;;;;;;;;;5073031;28;20020;-87
2021/06/02 01:03:03;;;;;;;3.75;2.40;;;;;;;;;;5075914;28;20032;-87
2021/06/02 01:05:29;;;;;;;5.07;2.63;;;;;;;;;;5075837;28;20044;-87
2021/06/02 01:08:00;;;;;;;4.25;2.60;;;;;;;;;;5077408;28;20020;-87
2021/06/02 01:10:27;;;;;;;7.72;2.55;;;;;;;;;;5075836;28;20074;-87
2021/06/02 01:12:56;;;;;;;4.90;2.22;;;;;;;;;;5077117;28;20105;-87
2021/06/02 01:15:22;;;;;;;6.05;2.28;;;;;;;;;;5077180;28;20028;-87
2021/06/02 01:17:48;;;;;;;2.75;2.20;;;;;;;;;;5075701;28;20024;-87
2021/06/02 01:20:14;;;;;;;4.90;2.25;;;;;;;;;;5076683;28;20451;-87
2021/06/02 01:22:41;;;;;;;3.97;2.20;;;;;;;;;;5075611;28;20067;-87
2021/06/02 01:25:16;;;;;;;7.22;2.65;;;13.40;92.60;;;;;;5077142;28;20460;-88
2021/06/02 01:27:42;;;;;;;4.70;2.20;;;13.50;99.90;;;;;;5077010;28;20023;-87
2021/06/02 01:30:14;;;;;;;4.90;2.38;;;13.50;94.00;;;;;;5075344;28;20028;-87
2021/06/02 01:32:54;;;;;;;2.33;2.13;;;13.40;93.90;;;;;;5076610;28;20032;-87
2021/06/02 01:35:41;;;;;;;3.22;2.28;;;13.40;93.80;;;;;;5075155;28;20048;-88
2021/06/02 01:38:32;;;;;;;3.40;2.38;;;13.40;93.70;;;;;;5076520;28;20459;-88
2021/06/02 01:41:19;;;;;;;5.05;2.35;;;13.30;93.80;;;;;;5075152;28;20021;-88
2021/06/02 01:44:10;;;;;;;5.40;2.47;;;13.30;93.70;;;;;;5075171;28;20480;-88
2021/06/02 01:46:58;;;;;;;4.07;2.47;;;13.10;93.90;;;;;;5076306;28;20017;-87
2021/06/02 01:50:06;;;;;;;4.35;2.25;;;13.00;94.50;;;;;;5075714;28;20544;-87
2021/06/02 01:53:05;;;;;;;6.18;2.20;;;13.00;94.10;;;;;;5075513;28;20037;-87
2021/06/02 01:55:46;;;;;;;4.57;2.38;;;13.10;94.60;;;;;;5075007;28;20029;-88
2021/06/02 01:58:36;;;;;;;6.68;2.45;;;13.20;94.50;;;;;;5076154;28;20384;-87
2021/06/02 02:01:20;;;;;;;5.30;2.60;;;13.30;93.90;;;;;;5074757;28;20029;-88
2021/06/02 02:04:14;;;;;;;3.60;2.30;;;13.30;94.00;;;;;;5074753;28;20031;-87
2021/06/02 02:07:17;;;;;;;4.68;2.60;;;13.20;93.60;;;;;;5075958;28;20021;-87
2021/06/02 02:10:10;;;;;;;5.50;2.42;;;13.10;93.90;;;;;;5075972;28;20500;-88
2021/06/02 02:12:36;;;;;;;4.30;2.10;;;13.00;94.20;;;;;;5075907;28;20033;-87
2021/06/02 02:15:16;;;;;;;5.05;2.08;;;13.00;94.50;;;;;;5073943;28;20025;-88
2021/06/02 02:17:56;;;;;;;3.55;2.08;;;13.10;94.20;;;;;;5074630;28;20029;-88
2021/06/02 02:20:39;;;;;;;3.33;2.03;;;13.10;94.00;;;;;;5074322;28;20056;-88
2021/06/02 02:23:27;;;;;;;4.72;2.70;;;13.10;94.10;;;;;;5075711;28;20467;-88
2021/06/02 02:26:26;;;;;;;3.00;2.28;;;12.90;94.10;;;;;;5075725;28;20361;-88
2021/06/02 02:29:18;;;;;;;2.80;2.10;;;12.90;94.40;;;;;;5074364;28;20113;-87
2021/06/02 02:31:50;;;;;;;5.63;2.80;;;12.80;94.60;;;;;;5075619;28;20105;-88
2021/06/02 02:34:18;;;;;;;4.90;2.60;;;12.80;94.40;;;;;;5073992;28;20045;-87
2021/06/02 02:36:48;;;;;;;3.65;2.30;;;12.30;99.90;;;;;;5074369;28;20483;-87
2021/06/02 02:39:23;;;;;;;4.18;2.65;;;12.60;99.90;;;;;;5075276;28;20476;-87
2021/06/02 02:42:21;;;;;;;3.95;2.05;;;12.90;99.90;;;;;;5075436;28;20016;-87
2021/06/02 02:45:01;;;;;;;6.60;2.83;;;13.00;99.90;;;;;;5075643;28;20020;-87
2021/06/02 02:47:44;;;;;;;3.72;2.17;;;13.10;99.90;;;;;;5075287;28;20043;-87
2021/06/02 02:50:10;;;;;;;2.95;2.15;;;13.10;99.90;;;;;;5073949;28;20028;-87
2021/06/02 02:52:41;;;;;;;3.28;2.20;;;13.10;99.90;;;;;;5075058;28;20024;-87
2021/06/02 02:55:29;;;;;;;6.00;2.53;;;13.10;99.90;;;;;;5075095;28;20109;-87
2021/06/02 02:58:19;;;;;;;6.13;2.63;;;13.10;99.90;;;;;;5073700;28;20039;-87
2021/06/02 03:00:45;;;;;;;5.18;2.50;;;;;;;;;;5073717;28;20105;-87
2021/06/02 03:03:31;;;;;;;4.80;2.40;;;;;;;;;;5074887;28;20032;-87
2021/06/02 03:06:04;;;;;;;5.35;2.65;;;;;;;;;;5074942;28;20016;-87
2021/06/02 03:08:51;;;;;;;3.97;2.38;;;;;;;;;;5073510;28;20103;-87
2021/06/02 03:11:32;;;;;;;3.35;2.38;;;;;;;;;;5074562;28;20035;-87
2021/06/02 03:14:06;;;;;;;3.33;2.63;;;12.90;99.90;;;;;;5074970;28;20028;-87
2021/06/02 03:16:37;;;;;;;3.55;2.20;;;12.90;99.90;;;;;;5074637;28;20028;-87
2021/06/02 03:19:10;;;;;;;4.80;2.33;;;12.90;99.90;;;;;;5073298;28;20480;-87
2021/06/02 03:21:54;;;;;;;5.15;2.22;;;13.00;99.90;;;;;;5073280;28;20082;-87
2021/06/02 03:24:23;;;;;;;4.68;2.22;;;12.90;99.90;;;;;;5073270;28;20454;-88
2021/06/02 03:26:58;;;;;;;3.55;2.28;;;13.00;99.90;;;;;;5072228;28;20021;-87
2021/06/02 03:29:57;;;;;;;2.63;2.40;;;12.70;99.90;;;;;;5073285;28;20028;-87
2021/06/02 03:32:29;;;;;;;4.15;2.25;;;12.70;99.90;;;;;;5073132;28;20174;-87
2021/06/02 03:34:58;;;;;;;4.15;2.30;;;12.30;98.20;;;;;;5074354;28;20408;-87
2021/06/02 03:37:43;;;;;;;3.88;2.22;;;12.50;98.30;;;;;;5074171;28;20472;-87
2021/06/02 03:40:18;;;;;;;3.38;2.22;;;12.60;98.10;;;;;;5072924;28;20035;-88
2021/06/02 03:43:05;;;;;;;3.25;2.40;;;;;;;;;;5072865;28;20110;-88
2021/06/02 03:45:36;;;;;;;3.33;2.30;;;11.70;99.90;;;;;;5074364;28;20024;-88
2021/06/02 03:48:19;;;;;;;4.72;2.90;;;12.30;99.90;;;;;;5072719;28;20025;-87
2021/06/02 03:51:05;;;;;;;5.93;2.50;;;12.30;99.90;;;;;;5072818;28;20024;-88
2021/06/02 03:53:58;;;;;;;4.15;2.55;;;12.40;99.90;;;;;;5072702;28;20028;-87
2021/06/02 03:56:58;;;;;;;3.53;2.25;;;12.80;99.90;;;;;;5072674;28;20403;-88
2021/06/02 04:00:03;;;;;;;2.97;2.20;;;12.70;99.90;;;;;;5072446;28;20028;-88
2021/06/02 04:02:40;;;;;;;2.70;2.33;;;12.40;99.90;;;;;;5073880;28;20013;-88
2021/06/02 04:05:30;;;;;;;5.22;2.30;;;12.30;99.90;;;;;;5072537;28;20395;-88
2021/06/02 04:08:21;;;;;;;8.18;2.42;;;12.10;95.80;;;;;;5072450;28;20418;-88
2021/06/02 04:11:08;;;;;;;6.35;2.65;;;12.20;95.20;;;;;;5073620;28;20024;-88
2021/06/02 04:13:54;;;;;;;5.75;2.38;;;12.30;95.30;;;;;;5072466;28;20024;-88
2021/06/02 04:16:35;;;;;;;4.00;2.53;;;12.30;95.10;;;;;;5072424;28;20031;-88
2021/06/02 04:19:09;;;;;;;5.68;2.67;;;12.20;95.20;;;;;;5073590;28;20020;-87
2021/06/02 04:21:38;;;;;;;3.25;2.38;;;12.50;95.20;;;;;;5072351;28;20081;-88
2021/06/02 04:24:06;;;;;;;4.03;2.50;;;12.70;94.90;;;;;;5072259;28;20169;-88
2021/06/02 04:26:34;;;;;;;4.13;2.33;;;12.60;94.90;;;;;;5072291;28;20020;-88
2021/06/02 04:29:02;;;;;;;3.92;2.33;;;12.70;94.50;;;;;;5073368;28;20020;-88
2021/06/02 04:31:30;;;;;;;3.35;2.55;;;12.40;94.90;;;;;;5072092;28;20028;-88
2021/06/02 04:33:58;;;;;;;4.13;2.45;;;12.00;99.10;;;;;;5071891;28;20048;-88
2021/06/02 04:36:25;;;;;;;2.83;2.30;;;12.20;97.30;;;;;;5071728;28;20021;-88
2021/06/02 04:38:54;;;;;;;5.85;2.35;;;12.00;98.20;;;;;;5072032;28;20016;-88
2021/06/02 04:41:22;;;;;;;2.85;2.10;;;12.40;98.20;;;;;;5072068;28;20040;-87
2021/06/02 04:43:50;;;;;;;3.70;2.28;;;12.50;97.90;;;;;;5073298;28;20024;-88
2021/06/02 04:46:19;;;;;;;3.30;2.45;;;12.80;98.50;;;;;;5071906;28;20060;-88
2021/06/02 04:48:44;;;;;;;4.45;2.10;;;13.00;96.90;;;;;;5073501;28;20353;-88
2021/06/02 04:52:01;;;;;;;4.05;2.20;;;12.90;99.20;;;;;;5071994;28;20150;-88
2021/06/02 04:54:32;;;;;;;4.22;2.40;;;13.10;98.10;;;;;;5072657;28;20033;-87
2021/06/02 04:57:22;;;;;;;3.95;2.45;;;12.70;98.90;;;;;;5073125;28;20496;-88
2021/06/02 05:00:29;;;;;;;6.93;2.35;;;12.70;98.10;;;;;;5071804;28;20134;-87
2021/06/02 05:03:22;;;;;;;4.22;2.47;;;12.40;98.50;;;;;;5071982;28;20021;-88
2021/06/02 05:06:25;;;;;;;7.38;2.70;;;12.70;98.30;;;;;;5071903;28;20078;-88
2021/06/02 05:08:51;;;;;;;5.82;2.75;;;12.80;97.90;;;;;;5071819;28;20055;-88
2021/06/02 05:11:28;;;;;;;4.28;2.17;;;12.90;98.90;;;;;;5071785;28;20028;-88
2021/06/02 05:14:25;;;;;;;4.18;2.60;;;12.90;98.90;;;;;;5071848;28;20388;-88
2021/06/02 05:17:11;;;;;;;3.92;2.60;;;12.90;98.60;;;;;;5073440;28;20025;-88
2021/06/02 05:20:24;;;;;;;5.90;2.92;;;13.00;97.90;;;;;;5071763;28;20078;-88
2021/06/02 05:23:02;;;;;;;4.80;2.35;;;12.90;98.50;;;;;;5071757;28;20507;-87
2021/06/02 05:26:16;;;;;;;7.82;2.95;;;12.90;98.70;;;;;;5073034;28;20532;-88
2021/06/02 05:29:17;;;;;;;3.70;2.60;;;12.80;99.20;;;;;;5071672;28;20021;-88
2021/06/02 05:32:01;;;;;;;3.80;3.05;;;12.60;99.70;;;;;;5071890;28;20548;-88
2021/06/02 05:34:42;;;;;;;8.10;2.75;;;12.60;99.90;;;;;;5072660;28;20101;-88
2021/06/02 05:37:46;;;;;;;6.43;2.47;;;12.80;99.90;;;;;;5071551;28;20027;-87
2021/06/02 05:40:42;;;;;;;4.80;3.05;;;13.10;99.60;;;;;;5072795;28;20097;-88
2021/06/02 05:43:45;;;;;;;6.30;2.80;;;13.20;99.90;;;;;;5071634;28;20025;-88
2021/06/02 05:46:40;;;;;;;4.75;2.53;;;13.60;99.40;;;;;;5072766;28;20471;-88
2021/06/02 05:49:14;;;;;;;3.42;2.50;;;13.80;99.00;;;;;;5074282;28;20384;-88
2021/06/02 05:52:22;;;;;;;4.72;2.58;;;14.00;98.90;;;;;;5075448;28;20472;-88
2021/06/02 05:54:54;;;;;;;5.38;2.42;;;14.00;99.00;;;;;;5076070;28;20029;-88
2021/06/02 05:57:57;;;;;;;6.60;2.47;;;14.20;99.20;;;;;;5075051;28;20127;-88
2021/06/02 06:00:34;;;;;;;6.75;2.53;;;14.20;98.90;;;;;;5076047;28;20021;-88
2021/06/02 06:03:48;;;;;;;6.07;2.50;;;14.20;99.40;;;;;;5074996;28;20021;-88
2021/06/02 06:06:30;;;;;;;7.60;2.50;;;14.20;98.80;;;;;;5069956;28;20025;-88
2021/06/02 06:09:41;;;;;;;5.85;2.33;;;14.30;99.00;;;;;;5074784;28;20413;-88
2021/06/02 06:12:29;;;;;;;3.95;2.17;;;14.60;98.60;;;;;;5074516;28;20047;-88
2021/06/02 06:15:33;;;;;;;5.10;2.70;;;14.60;94.90;;;;;;5074231;28;20025;-88
2021/06/02 06:18:23;;;;;;;5.00;2.20;;;14.70;94.90;;;;;;5075889;28;20537;-88
2021/06/02 06:21:25;;;;;;;8.55;2.40;;;14.80;94.80;;;;;;5075708;28;20027;-88
2021/06/02 06:24:03;;;;;;;4.25;2.42;;;14.80;95.00;;;;;;5074532;28;20016;-88
2021/06/02 06:27:01;;;;;;;3.25;2.40;;;14.90;95.10;;;;;;5075688;28;20021;-88
2021/06/02 06:29:37;;;;;;;5.65;2.78;;;14.90;95.40;;;;;;5075912;28;20035;-88
2021/06/02 06:32:06;;;;;;;5.53;2.40;;;15.00;95.40;;;;;;5074521;28;20029;-88
2021/06/02 06:34:33;;;;;;;3.25;2.08;;;15.20;95.20;;;;;;5075271;28;20053;-88
2021/06/02 06:37:01;;;;;;;6.70;2.58;;;15.40;96.00;;;;;;5074182;28;20032;-88
2021/06/02 06:39:53;;;;;;;8.75;2.45;;;15.50;96.70;;;;;;5074183;28;20020;-88
2021/06/02 06:42:28;;;;;;;12.30;2.80;;;15.60;96.30;;;;;;5074094;28;20070;-88
2021/06/02 06:45:05;;;;;;;12.77;2.97;;;15.70;96.90;;;;;;5074154;28;20017;-88
2021/06/02 06:47:34;;;;;;;8.82;2.88;;;15.90;96.40;;;;;;5073994;28;20373;-88
2021/06/02 06:50:00;;;;;;;10.93;2.63;;;16.00;95.90;;;;;;5074034;28;20024;-89
2021/06/02 06:52:28;;;;;;;19.90;2.70;;;16.10;94.90;;;;;;5073899;28;20032;-88
2021/06/02 06:54:58;;;;;;;20.20;2.58;;;16.20;94.50;;;;;;5073982;28;20032;-88
2021/06/02 06:57:25;;;;;;;9.80;2.00;;;16.30;93.20;;;;;;5075362;28;20029;-88
2021/06/02 06:59:52;;;;;;;22.15;2.67;;;16.40;91.90;;;;;;5073605;28;20067;-88
2021/06/02 07:02:21;;;;;;;12.02;2.30;;;16.60;91.10;;;;;;5075482;28;20028;-88
2021/06/02 07:04:48;;;;;;;9.55;2.38;;;16.70;90.20;;;;;;5074946;28;20020;-88
2021/06/02 07:07:15;;;;;;;10.80;2.50;;;16.90;90.30;;;;;;5074852;28;20022;-88
2021/06/02 07:09:40;;;;;;;13.48;2.30;;;16.90;91.10;;;;;;5073675;28;20451;-88
2021/06/02 07:12:07;;;;;;;14.15;2.38;;;16.90;91.40;;;;;;5074854;28;20021;-88
2021/06/02 07:14:36;;;;;;;8.93;2.40;;;16.90;91.50;;;;;;5075225;28;20475;-87
2021/06/02 07:17:08;;;;;;;8.85;2.55;;;17.20;91.90;;;;;;5073427;28;20063;-87
2021/06/02 07:19:40;;;;;;;6.35;2.22;;;17.30;92.00;;;;;;5073406;28;20031;-88
2021/06/02 07:22:07;;;;;;;5.47;1.50;;;17.50;92.10;;;;;;5073257;28;20024;-87
2021/06/02 07:24:34;;;;;;;5.45;1.60;;;17.70;87.90;;;;;;5073225;28;20043;-86
2021/06/02 07:27:00;;;;;;;6.00;1.70;;;17.80;84.20;;;;;;5074615;28;20025;-88
2021/06/02 07:29:27;;;;;;;3.58;1.77;;;17.80;81.90;;;;;;5073125;28;20434;-87
2021/06/02 07:31:53;;;;;;;3.78;1.80;;;17.90;84.80;;;;;;5073194;28;20025;-88
2021/06/02 07:34:20;;;;;;;4.05;1.60;;;18.00;85.40;;;;;;5072980;28;20049;-87
2021/06/02 07:36:46;;;;;;;7.45;1.90;;;18.10;85.60;;;;;;5073111;28;20503;-86
2021/06/02 07:39:12;;;;;;;7.25;1.90;;;18.20;86.00;;;;;;5072814;28;20021;-87
2021/06/02 07:41:38;;;;;;;8.38;1.77;;;18.30;87.20;;;;;;5074190;28;20016;-88
2021/06/02 07:44:04;;;;;;;4.53;1.60;;;18.30;86.60;;;;;;5074436;28;20052;-88
2021/06/02 07:46:34;;;;;;;2.55;1.80;;;18.30;86.60;;;;;;5072884;28;20023;-88
2021/06/02 07:49:00;;;;;;;5.38;1.90;;;18.50;83.80;;;;;;5074071;28;20108;-88
2021/06/02 07:51:26;;;;;;;2.85;1.48;;;18.50;82.80;;;;;;5072793;28;20027;-88
2021/06/02 07:53:51;;;;;;;4.22;1.52;;;18.50;82.70;;;;;;5073915;28;20099;-87
2021/06/02 07:56:17;;;;;;;5.75;2.00;;;18.70;82.10;;;;;;5073743;28;20021;-87
2021/06/02 07:58:43;;;;;;;6.53;1.83;;;18.90;83.70;;;;;;5072651;28;20024;-87
2021/06/02 08:01:08;;;;;;;5.28;1.60;;;19.10;82.10;;;;;;5072508;28;20028;-88
2021/06/02 08:03:34;;;;;;;3.05;1.40;;;19.30;82.00;;;;;;5073797;28;20024;-88
2021/06/02 08:06:00;;;;;;;6.40;1.85;;;19.20;79.00;;;;;;5072551;28;20383;-88
2021/06/02 08:08:26;;;;;;;4.72;1.70;;;19.20;80.10;;;;;;5073796;28;20050;-87
2021/06/02 08:10:51;;;;;;;5.80;1.40;;;19.40;80.60;;;;;;5073731;28;20020;-88
2021/06/02 08:13:17;;;;;;;5.43;1.60;;;19.40;75.80;;;;;;5073256;28;20027;-87
2021/06/02 08:15:43;;;;;;;5.47;1.40;;;19.60;76.20;;;;;;5072430;28;20107;-87
2021/06/02 08:18:08;;;;;;;5.28;1.67;;;19.70;75.80;;;;;;5072318;28;20027;-87
2021/06/02 08:20:34;;;;;;;4.82;1.58;;;19.80;75.20;;;;;;5073544;28;20107;-87
2021/06/02 08:23:00;;;;;;;2.22;1.48;;;19.90;75.30;;;;;;5072243;28;20111;-88
2021/06/02 08:25:26;;;;;;;6.50;1.45;;;20.00;76.70;;;;;;5072215;28;20029;-88
2021/06/02 08:27:52;;;;;;;4.03;1.30;;;20.10;73.40;;;;;;5072195;28;20464;-88
2021/06/02 08:30:18;;;;;;;2.22;1.30;;;20.20;73.40;;;;;;5073447;28;20032;-88
2021/06/02 08:32:44;;;;;;;4.43;1.40;;;20.30;72.60;;;;;;5072199;28;20028;-88
2021/06/02 08:35:11;;;;;;;3.97;1.63;;;20.30;71.70;;;;;;5071982;28;20060;-88
2021/06/02 08:37:37;;;;;;;2.78;1.40;;;20.40;71.80;;;;;;5073415;28;20020;-88
2021/06/02 08:40:04;;;;;;;3.45;1.40;;;20.40;71.90;;;;;;5073242;28;20504;-87
2021/06/02 08:42:31;;;;;;;3.03;1.52;;;20.60;72.10;;;;;;5072101;28;20047;-87
2021/06/02 08:44:57;;;;;;;6.40;1.88;;;20.70;72.60;;;;;;5073549;28;20017;-87
2021/06/02 08:47:23;;;;;;;5.57;1.40;;;21.00;72.30;;;;;;5071923;28;20025;-88
2021/06/02 08:49:49;;;;;;;3.25;1.27;;;21.20;71.40;;;;;;5071946;28;20115;-87
2021/06/02 08:52:14;;;;;;;4.55;1.40;;;21.40;69.40;;;;;;5072126;28;20110;-86
2021/06/02 08:54:40;;;;;;;6.65;1.30;;;21.40;68.40;;;;;;5072178;28;20510;-86
2021/06/02 08:57:08;;;;;;;5.00;1.38;;;21.50;67.00;;;;;;5073187;28;20051;-86
2021/06/02 08:59:35;;;;;;;5.38;1.40;;;21.70;67.30;;;;;;5071883;28;20506;-88
2021/06/02 09:02:02;;;;;;;2.80;1.45;;;21.70;66.60;;;;;;5073235;28;20408;-87
2021/06/02 09:04:30;;;;;;;2.28;1.60;;;21.90;68.00;;;;;;5071807;28;20024;-87
2021/06/02 09:06:56;;;;;;;2.80;1.50;;;22.00;68.70;;;;;;5071790;28;20476;-87
2021/06/02 09:09:23;;;;;;;2.83;1.30;;;22.00;66.00;;;;;;5073029;28;20020;-88
2021/06/02 09:11:51;;;;;;;3.97;1.58;;;22.40;65.30;;;;;;5071716;28;20025;-87
2021/06/02 09:14:28;;;;;;;2.60;1.30;;;22.30;65.50;;;;;;5073326;28;20017;-88
2021/06/02 09:17:02;;;;;;;11.18;1.65;;;22.50;64.80;;;;;;5071797;28;20035;-88
2021/06/02 09:19:47;;;;;;;6.18;1.38;;;22.70;63.70;;;;;;5073259;28;20056;-88
2021/06/02 09:22:18;;;;;;;2.65;1.38;;;22.90;63.40;;;;;;5071791;28;20024;-88
2021/06/02 09:24:47;;;;;;;4.32;1.20;;;23.00;64.90;;;;;;5074068;28;20035;-88
2021/06/02 09:27:13;;;;;;;2.90;1.15;;;22.90;64.40;;;;;;5075510;28;20024;-88
2021/06/02 09:29:56;;;;;;;4.38;1.33;;;23.00;62.70;;;;;;5076636;28;20108;-87
2021/06/02 09:32:23;;;;;;;4.00;1.27;;;23.10;64.60;;;;;;5076648;28;20480;-87
2021/06/02 09:34:59;;;;;;;3.97;1.60;;;23.10;64.70;;;;;;5076440;28;20448;-88
2021/06/02 09:37:25;;;;;;;4.55;1.60;;;23.20;62.80;;;;;;5075388;28;20111;-88
2021/06/02 09:39:51;;;;;;;4.63;1.20;;;23.40;62.80;;;;;;5075282;28;20029;-87
2021/06/02 09:42:20;;;;;;;4.30;1.58;;;23.40;62.00;;;;;;5076498;28;20047;-87
2021/06/02 09:45:07;;;;;;;2.72;1.35;;;23.40;62.80;;;;;;5076429;28;20091;-88
2021/06/02 09:47:46;;;;;;;4.20;1.40;;;23.80;63.20;;;;;;5075110;28;20118;-88
2021/06/02 09:50:16;;;;;;;8.27;1.55;;;24.20;63.40;;;;;;5075133;28;20044;-88
2021/06/02 09:52:53;;;;;;;6.50;1.48;;;24.10;59.90;;;;;;5076373;28;20109;-88
2021/06/02 09:55:35;;;;;;;4.32;1.55;;;24.10;61.80;;;;;;5075115;28;20024;-88
2021/06/02 09:58:07;;;;;;;2.10;1.10;;;24.30;61.50;;;;;;5075067;28;20028;-89
2021/06/02 10:00:43;;;;;;;5.18;1.40;;;24.20;61.20;;;;;;5076123;28;20388;-88
2021/06/02 10:03:15;;;;;;;2.90;1.42;;;24.00;59.70;;;;;;5074889;28;20047;-88
2021/06/02 10:05:44;;;;;;;6.32;1.75;;;24.20;59.40;;;;;;5074823;28;20016;-88
2021/06/02 10:08:23;;;;;;;4.28;1.50;;;24.80;81.30;;;;;;5074767;28;20024;-88
2021/06/02 10:10:49;;;;;;;4.72;1.40;;;24.90;58.10;;;;;;5074807;28;20021;-88
2021/06/02 10:13:14;;;;;;;1.75;1.23;;;25.10;58.00;;;;;;5074598;28;20391;-88
2021/06/02 10:15:41;;;;;;;4.75;1.30;;;25.30;58.40;;;;;;5076384;28;20048;-87
2021/06/02 10:18:25;;;;;;;3.97;1.50;;;25.50;58.10;;;;;;5075871;28;20029;-88
2021/06/02 10:20:58;;;;;;;2.45;1.30;;;25.40;58.10;;;;;;5074504;28;20029;-88
2021/06/02 10:23:30;;;;;;;4.18;1.30;;;25.40;57.30;;;;;;5075698;28;20028;-88
2021/06/02 10:25:57;;;;;;;3.67;1.20;;;25.40;56.50;;;;;;5074384;28;20494;-87
2021/06/02 10:28:25;;;;;;;1.73;1.17;;;25.20;58.20;;;;;;5074445;28;20020;-88
2021/06/02 10:30:51;;;;;;;7.55;1.48;;;25.50;57.30;;;;;;5074381;28;20082;-87
2021/06/02 10:33:16;;;;;;;4.65;1.30;;;25.60;57.00;;;;;;5074195;28;20503;-88
2021/06/02 10:35:42;;;;;;;2.45;1.30;;;25.90;57.30;;;;;;5073673;28;20025;-87
2021/06/02 10:38:08;;;;;;;5.45;1.40;;;26.00;55.90;;;;;;5074167;28;20483;-87
2021/06/02 10:40:37;;;;;;;2.97;1.35;;;26.10;56.40;;;;;;5075429;28;20480;-88
2021/06/02 10:43:17;;;;;;;3.13;1.30;;;26.10;56.00;;;;;;5075351;28;20469;-88
2021/06/02 10:46:08;;;;;;;5.85;1.50;;;26.10;57.30;;;;;;5075332;28;20040;-87
2021/06/02 10:48:38;;;;;;;2.63;1.20;;;26.50;57.00;;;;;;5073560;28;20040;-88
2021/06/02 10:51:04;;;;;;;9.80;1.48;;;26.50;56.60;;;;;;5075146;28;20024;-88
2021/06/02 10:53:29;;;;;;;3.75;1.50;;;26.60;56.40;;;;;;5073850;28;20027;-87
2021/06/02 10:56:00;;;;;;;2.88;1.52;;;27.00;57.30;;;;;;5075073;28;20044;-87
2021/06/02 10:58:34;;;;;;;3.28;1.40;;;26.90;55.30;;;;;;5073812;28;20029;-87
2021/06/02 11:01:10;;;;;;;5.55;1.42;;;26.60;54.70;;;;;;5075017;28;20113;-87
2021/06/02 11:03:42;;;;;;;3.75;1.40;;;26.90;55.80;;;;;;5075274;28;20028;-88
2021/06/02 11:06:14;;;;;;;3.33;1.20;;;27.20;54.00;;;;;;5075174;28;20028;-88
2021/06/02 11:08:51;;;;;;;4.38;1.38;;;27.40;54.70;;;;;;5073576;28;20066;-88
2021/06/02 11:11:31;;;;;;;5.05;1.30;;;27.40;54.10;;;;;;5073796;28;20028;-87
2021/06/02 11:16:53;;;;;;;7.25;1.50;;;27.90;53.80;;;;;;5074748;28;20033;-88
2021/06/02 11:19:24;;;;;;;7.03;1.30;;;27.90;53.20;;;;;;5073359;28;20484;-87
2021/06/02 11:21:53;;;;;;;2.53;1.17;;;28.00;53.60;;;;;;5074648;28;20017;-88
2021/06/02 11:24:31;;;;;;;2.72;1.15;;;27.90;53.50;;;;;;5074536;28;20516;-87
2021/06/02 11:27:15;;;;;;;5.28;1.35;;;28.10;55.30;;;;;;5074688;28;20028;-88
2021/06/02 11:32:15;;;;;;;1.98;1.10;;;28.40;52.20;;;;;;5074595;28;20036;-87
2021/06/02 11:34:42;;;;;;;2.35;1.20;;;28.40;52.40;;;;;;5073975;28;20078;-88
2021/06/02 11:37:15;;;;;;;2.95;1.23;;;28.10;51.80;;;;;;5074565;28;20463;-87
2021/06/02 11:39:42;;;;;;;4.65;1.15;;;28.00;51.70;;;;;;5074158;28;20078;-87
2021/06/02 11:42:11;;;;;;;3.70;1.63;;;28.10;51.40;;;;;;5074468;28;20408;-87
2021/06/02 11:44:38;;;;;;;9.48;1.15;;;28.50;50.80;;;;;;5073430;28;20078;-87
2021/06/02 11:47:07;;;;;;;4.88;1.50;;;28.90;51.20;;;;;;5072266;28;20059;-87
2021/06/02 11:49:34;;;;;;;8.38;1.58;;;29.30;50.80;;;;;;5074445;28;20464;-88
2021/06/02 11:52:12;;;;;;;4.32;1.20;;;29.40;51.10;;;;;;5072895;28;20091;-87
2021/06/02 11:54:50;;;;;;;2.22;1.08;;;29.60;49.90;;;;;;5072759;28;20472;-88
2021/06/02 11:57:33;;;;;;;4.32;1.33;;;30.10;49.40;;;;;;5072667;28;20116;-87
2021/06/02 12:00:03;;;;;;;2.92;1.00;;;30.40;48.60;;;;;;5072578;28;20056;-87
2021/06/02 12:02:29;;;;;;;2.92;1.13;;;30.30;47.60;;;;;;5073035;28;20043;-86
2021/06/02 12:05:16;;;;;;;2.88;1.20;;;29.90;50.00;;;;;;5072587;28;20484;-87
2021/06/02 12:07:47;;;;;;;4.15;1.10;;;30.00;47.60;;;;;;5072702;28;20021;-87
2021/06/02 12:10:14;;;;;;;4.82;1.25;;;29.30;49.30;;;;;;5072826;28;20107;-87
2021/06/02 12:12:43;;;;;;;3.50;1.10;;;29.20;50.30;;;;;;5072697;28;20032;-86
2021/06/02 12:15:10;;;;;;;3.42;1.20;;;29.60;49.20;;;;;;5073843;28;20029;-87
2021/06/02 12:17:36;;;;;;;3.38;1.30;;;29.50;49.20;;;;;;5072341;28;20025;-86
2021/06/02 12:20:08;;;;;;;5.10;1.30;;;29.40;51.40;;;;;;5073594;28;20035;-86
2021/06/02 12:22:33;;;;;;;2.60;1.17;;;29.60;50.00;;;;;;5073748;28;20024;-86
2021/06/02 12:25:08;;;;;;;3.35;1.05;;;29.90;50.50;;;;;;5073791;28;20528;-86
2021/06/02 12:27:40;;;;;;;3.30;1.30;;;29.80;50.00;;;;;;5072221;28;20530;-87
2021/06/02 12:30:08;;;;;;;2.85;1.10;;;30.20;49.90;;;;;;5073793;28;20032;-87
2021/06/02 12:32:53;;;;;;;3.83;1.13;;;29.90;49.10;;;;;;5073726;28;20412;-87
2021/06/02 12:35:35;;;;;;;5.05;1.30;;;29.80;47.30;;;;;;5073297;28;20068;-88
2021/06/02 12:38:23;;;;;;;2.33;1.30;;;30.30;47.70;;;;;;5073817;28;20028;-87
2021/06/02 12:40:58;;;;;;;8.60;1.30;;;31.10;47.70;;;;;;5071980;28;20178;-87
2021/06/02 12:43:45;;;;;;;6.85;1.30;;;31.10;48.20;;;;;;5072296;28;20115;-87
2021/06/02 12:46:13;;;;;;;4.00;1.30;;;31.10;47.70;;;;;;5074385;28;20561;-87
2021/06/02 12:48:40;;;;;;;11.75;1.30;;;30.60;47.40;;;;;;5073082;28;20020;-87
2021/06/02 12:51:11;;;;;;;2.95;1.30;;;30.80;47.30;;;;;;5073468;28;20078;-87
2021/06/02 12:53:39;;;;;;;5.10;1.40;;;30.90;47.40;;;;;;5073825;28;20077;-87
2021/06/02 12:56:06;;;;;;;3.92;1.30;;;31.20;45.60;;;;;;5073512;28;20082;-89
2021/06/02 12:58:32;;;;;;;5.47;1.20;;;31.30;46.10;;;;;;5074101;28;20035;-87
2021/06/02 13:01:07;;;;;;;4.70;1.30;;;31.60;45.60;;;;;;5077363;28;20021;-87
2021/06/02 13:03:34;;;;;;;5.32;1.30;;;32.00;45.00;;;;;;5076158;28;20028;-87
2021/06/02 13:06:00;;;;;;;4.05;1.25;;;31.60;45.50;;;;;;5076007;28;20024;-88
2021/06/02 13:08:40;;;;;;;4.07;1.50;;;31.70;45.60;;;;;;5075907;28;20078;-88
2021/06/02 13:11:07;;;;;;;5.85;1.67;;;32.20;45.80;;;;;;5077174;28;20050;-87
2021/06/02 13:13:34;;;;;;;6.53;1.65;;;31.80;46.40;;;;;;5077104;28;20384;-88
2021/06/02 13:16:00;;;;;;;6.40;1.42;;;31.30;47.00;;;;;;5075747;28;20025;-87
2021/06/02 13:18:30;;;;;;;3.67;1.30;;;31.60;46.20;;;;;;5075729;28;20432;-87
2021/06/02 13:21:18;;;;;;;6.03;1.70;;;31.00;47.00;;;;;;5077219;28;20027;-87
2021/06/02 13:23:44;;;;;;;5.55;1.40;;;31.10;45.80;;;;;;5076490;28;20475;-86
2021/06/02 13:26:14;;;;;;;3.35;1.40;;;31.90;46.20;;;;;;5077061;28;20024;-88
2021/06/02 13:29:00;;;;;;;6.93;1.38;;;31.60;46.60;;;;;;5077081;28;20020;-87
2021/06/02 13:31:41;;;;;;;9.68;1.30;;;31.50;46.50;;;;;;5076107;28;20029;-87
2021/06/02 13:34:08;;;;;;;5.93;1.33;;;31.70;46.80;;;;;;5076578;28;20048;-87
2021/06/02 13:36:37;;;;;;;6.10;1.30;;;32.30;47.00;;;;;;5076643;28;20579;-87
2021/06/02 13:39:15;;;;;;;2.85;1.30;;;32.00;45.20;;;;;;5076854;28;20027;-87
2021/06/02 13:41:43;;;;;;;7.20;1.30;;;31.90;45.40;;;;;;5076528;28;20032;-86
2021/06/02 13:44:21;;;;;;;7.10;1.60;;;31.90;45.40;;;;;;5076414;28;20021;-87